Time;durP1;ratioP1;P1;durP2;ratioP2;P2;SDS_P1;SDS_P2;PMS_P1;PMS_P2;Temp;Humidity;BMP_temperature;BMP_pressure;BME280_temperature;BME280_humidity;BME280_pressure;Samples;Min_cycle;Max_cycle;Signal;HPM_P1;HPM_P2
2021/01/31 00:00:39;;;;;;;45.15;29.23;;;;;;;-2.37;91.20;97128.66;1724210;82;22585;-70
2021/01/31 00:03:17;;;;;;;46.88;30.48;;;;;;;-2.36;90.33;97145.84;1729275;82;21187;-70
2021/01/31 00:05:46;;;;;;;48.20;29.77;;;;;;;-2.40;90.67;97159.16;1722993;82;21176;-70
2021/01/31 00:08:16;;;;;;;47.35;29.70;;;;;;;-2.39;90.67;97142.69;1722822;82;21321;-69
2021/01/31 00:10:45;;;;;;;46.77;30.10;;;;;;;-2.41;90.40;97107.06;1722576;82;21195;-70
2021/01/31 00:13:13;;;;;;;50.30;32.08;;;;;;;-2.40;90.46;97055.62;1667533;82;21612;-71
2021/01/31 00:15:43;;;;;;;45.10;29.77;;;;;;;-2.39;90.60;97075.39;1714927;82;21627;-70
2021/01/31 00:18:12;;;;;;;45.15;29.50;;;;;;;-2.37;90.97;97100.19;1731532;83;21325;-70
2021/01/31 00:20:45;;;;;;;42.62;26.55;;;;;;;-2.33;90.82;97118.88;1719360;83;21190;-70
2021/01/31 00:23:13;;;;;;;41.80;27.30;;;;;;;-2.31;90.76;97127.33;1691526;82;21177;-70
2021/01/31 00:25:41;;;;;;;39.90;26.30;;;;;;;-2.29;90.23;97135.78;1718978;82;21187;-70
2021/01/31 00:28:10;;;;;;;36.08;24.25;;;;;;;-2.29;90.00;97133.67;1725841;82;21152;-70
2021/01/31 00:30:41;;;;;;;35.17;22.82;;;;;;;-2.27;89.49;97140.34;1722257;82;21145;-70
2021/01/31 00:33:14;;;;;;;35.38;22.73;;;;;;;-2.29;88.92;97147.42;1723032;82;21180;-70
2021/01/31 00:35:43;;;;;;;32.80;21.65;;;;;;;-2.31;88.32;97153.21;1715653;82;21189;-70
2021/01/31 00:38:15;;;;;;;36.63;22.40;;;;;;;-2.30;88.09;97166.52;1723143;82;21147;-70
2021/01/31 00:40:43;;;;;;;30.45;20.57;;;;;;;-2.32;87.73;97161.10;1730802;83;21302;-70
2021/01/31 00:43:12;;;;;;;30.37;20.62;;;;;;;-2.33;87.27;97166.77;1716421;82;21187;-70
2021/01/31 00:45:40;;;;;;;28.77;19.20;;;;;;;-2.36;87.33;97165.72;1730759;83;21561;-70
2021/01/31 00:48:10;;;;;;;31.17;22.13;;;;;;;-2.38;87.06;97167.13;1716143;82;21350;-70
2021/01/31 00:50:39;;;;;;;31.62;21.10;;;;;;;-2.45;86.80;97168.62;1717610;82;21347;-70
2021/01/31 00:53:09;;;;;;;35.25;22.95;;;;;;;-2.50;87.04;97173.83;1694834;83;21301;-70
2021/01/31 00:55:39;;;;;;;36.17;24.10;;;;;;;-2.55;86.98;97184.06;1691634;83;21686;-70
2021/01/31 00:58:07;;;;;;;34.50;22.98;;;;;;;-2.62;86.98;97186.84;1728934;83;21191;-70
2021/01/31 01:00:38;;;;;;;34.90;23.65;;;;;;;-2.64;87.00;97191.29;1691521;82;21136;-70
2021/01/31 01:03:08;;;;;;;;;;;;;;;-2.72;86.82;97200.16;1726371;82;21207;-70
2021/01/31 01:05:39;;;;;;;36.00;23.50;;;;;;;-2.72;87.00;97201.94;1722223;82;20168;-70
2021/01/31 01:08:07;;;;;;;34.70;23.35;;;;;;;-2.77;86.82;97210.06;1724299;82;21179;-70
2021/01/31 01:10:36;;;;;;;34.98;22.58;;;;;;;-2.83;86.64;97209.27;1719115;82;21567;-70
2021/01/31 01:13:05;;;;;;;30.80;19.32;;;;;;;-2.88;86.52;97217.88;1719065;82;21626;-70
2021/01/31 01:15:32;;;;;;;28.07;18.42;;;;;;;-2.92;86.65;97227.64;1718913;82;21190;-70
2021/01/31 01:18:00;;;;;;;30.40;19.73;;;;;;;-2.95;86.41;97227.42;1726778;82;21329;-70
2021/01/31 01:20:28;;;;;;;30.20;20.88;;;;;;;-3.00;86.20;97233.44;1719224;82;21717;-70
2021/01/31 01:22:57;;;;;;;30.23;20.27;;;;;;;-3.02;86.33;97240.50;1689519;82;21600;-70
2021/01/31 01:25:25;;;;;;;26.70;18.70;;;;;;;-3.02;86.74;97234.51;1724894;82;21187;-69
2021/01/31 01:27:53;;;;;;;29.05;18.25;;;;;;;-3.02;86.26;97235.80;1731080;83;21164;-70
2021/01/31 01:30:27;;;;;;;27.37;17.45;;;;;;;-3.06;86.52;97243.46;1718879;82;21179;-70
2021/01/31 01:32:57;;;;;;;27.37;17.82;;;;;;;-3.08;86.57;97242.28;1712925;82;21207;-70
2021/01/31 01:35:25;;;;;;;28.07;17.20;;;;;;;-3.06;86.53;97247.34;1718992;83;21174;-70
2021/01/31 01:37:53;;;;;;;22.13;15.30;;;;;;;-3.03;86.31;97247.92;1726405;82;21403;-70
2021/01/31 01:40:32;;;;;;;25.23;15.58;;;;;;;-3.02;85.78;97259.89;1715115;82;21167;-70
2021/01/31 01:43:31;;;;;;;21.60;14.85;;;;;;;-2.99;85.21;97260.95;1813740;78;23726;-69
2021/01/31 01:46:21;;;;;;;23.47;14.47;;;;;;;-3.04;85.11;97268.25;1787871;80;21278;-69
2021/01/31 01:48:53;;;;;;;21.25;13.75;;;;;;;-3.03;85.09;97272.94;1796665;79;21584;-69
2021/01/31 01:51:28;;;;;;;19.07;11.83;;;;;;;-3.07;84.75;97280.59;1740379;81;21171;-69
2021/01/31 01:53:57;;;;;;;18.75;11.73;;;;;;;-3.19;84.16;97279.80;1714769;82;21175;-69
2021/01/31 01:56:30;;;;;;;21.65;12.37;;;;;;;-3.27;84.83;97276.98;1735496;81;21306;-69
2021/01/31 01:59:23;;;;;;;18.37;11.48;;;;;;;-3.24;85.33;97285.32;1809338;78;22969;-69
2021/01/31 02:02:00;;;;;;;16.82;10.43;;;;;;;-3.29;85.17;97290.05;1765085;80;21175;-69
2021/01/31 02:04:30;;;;;;;15.95;10.30;;;;;;;-3.30;84.75;97298.73;1775852;80;21159;-70
2021/01/31 02:06:58;;;;;;;15.18;9.33;;;;;;;-3.34;85.25;97299.44;1781229;80;21588;-70
2021/01/31 02:09:27;;;;;;;16.97;11.55;;;;;;;-3.38;85.17;97305.80;1771661;80;21140;-70
2021/01/31 02:11:59;;;;;;;16.40;9.88;;;;;;;-3.38;85.62;97323.89;1720326;83;21179;-70
2021/01/31 02:14:27;;;;;;;12.93;9.33;;;;;;;-3.37;85.85;97319.53;1742450;81;21171;-70
2021/01/31 02:17:09;;;;;;;13.75;8.23;;;;;;;-3.36;85.73;97328.46;1742983;81;21187;-70
2021/01/31 02:20:19;;;;;;;14.70;8.48;;;;;;;-3.38;85.34;97325.17;1734134;81;21175;-70
2021/01/31 02:23:14;;;;;;;11.60;7.62;;;;;;;-3.45;85.38;97336.92;1744075;81;21179;-70
2021/01/31 02:26:04;;;;;;;11.53;7.78;;;;;;;-3.55;85.83;97343.27;1711749;82;21196;-69
2021/01/31 02:28:47;;;;;;;12.10;7.70;;;;;;;-3.60;86.19;97351.02;1702169;83;21620;-70
2021/01/31 02:31:55;;;;;;;12.23;8.30;;;;;;;-3.60;86.41;97358.77;1731830;81;21167;-70
2021/01/31 02:34:37;;;;;;;12.63;8.30;;;;;;;-3.60;86.68;97358.77;1731717;81;21179;-69
2021/01/31 02:37:23;;;;;;;12.68;8.50;;;;;;;-3.59;87.20;97373.31;1753054;81;21183;-70
2021/01/31 02:40:13;;;;;;;13.32;7.60;;;;;;;-3.56;87.29;97380.37;1753239;81;21628;-69
2021/01/31 02:42:58;;;;;;;10.72;7.30;;;;;;;-3.55;87.04;97388.97;1723375;82;21171;-69
2021/01/31 02:45:41;;;;;;;10.05;6.60;;;;;;;-3.57;87.26;97389.55;1757458;81;21711;-70
2021/01/31 02:48:33;;;;;;;11.15;6.87;;;;;;;-3.55;87.33;97398.01;1724201;83;21209;-69
2021/01/31 02:51:34;;;;;;;9.13;6.77;;;;;;;-3.55;87.27;97401.41;1879480;74;38252;-69
2021/01/31 02:54:13;;;;;;;10.50;6.70;;;;;;;-3.51;87.25;97411.05;1847938;77;21702;-69
2021/01/31 02:56:52;;;;;;;9.15;6.35;;;;;;;-3.47;86.96;97410.34;1832040;77;21162;-69
2021/01/31 02:59:27;;;;;;;11.05;7.15;;;;;;;-3.50;86.59;97421.72;1858367;77;21590;-69
2021/01/31 03:02:02;;;;;;;9.68;5.90;;;;;;;-3.52;86.90;97437.81;1844937;77;21575;-69
2021/01/31 03:04:44;;;;;;;8.00;5.78;;;;;;;-3.54;86.80;97452.13;1853510;77;21308;-69
2021/01/31 03:07:19;;;;;;;10.05;6.25;;;;;;;-3.57;86.96;97456.73;1839378;77;21555;-69
2021/01/31 03:09:58;;;;;;;8.98;6.00;;;;;;;-3.61;87.29;97465.18;1837747;77;21264;-69
2021/01/31 03:12:52;;;;;;;9.33;5.85;;;;;;;-3.62;87.76;97478.20;1845500;77;21296;-69
2021/01/31 03:15:24;;;;;;;8.58;5.97;;;;;;;-3.57;87.82;97487.73;1815678;77;21310;-69
2021/01/31 03:18:14;;;;;;;7.70;5.33;;;;;;;-3.58;87.85;97507.56;1847546;77;21146;-68
2021/01/31 03:20:57;;;;;;;9.23;5.37;;;;;;;-3.60;88.04;97521.07;1842585;77;21273;-69
2021/01/31 03:23:30;;;;;;;6.25;3.92;;;;;;;-3.66;88.47;97521.52;1823724;77;21099;-69
2021/01/31 03:26:12;;;;;;;8.40;5.80;;;;;;;-3.72;88.78;97533.13;1840895;77;21269;-69
2021/01/31 03:28:40;;;;;;;7.95;5.50;;;;;;;-3.76;89.43;97538.17;1836859;77;21120;-69
2021/01/31 03:31:08;;;;;;;5.85;4.62;;;;;;;-3.78;90.00;97550.38;1853010;77;21147;-69
2021/01/31 03:33:47;;;;;;;8.63;5.80;;;;;;;-3.77;90.51;97547.31;1863834;77;21317;-69
2021/01/31 03:36:15;;;;;;;8.20;5.80;;;;;;;-3.77;90.56;97542.96;1829811;77;21163;-69
2021/01/31 03:38:46;;;;;;;8.15;6.20;;;;;;;-3.75;91.57;97556.59;1858085;77;21572;-69
2021/01/31 03:41:20;;;;;;;7.25;5.08;;;;;;;-3.66;91.65;97556.41;1863426;77;21571;-69
2021/01/31 03:43:48;;;;;;;9.85;5.60;;;;;;;-3.62;90.96;97551.37;1829747;77;21579;-69
2021/01/31 03:46:39;;;;;;;7.87;5.72;;;;;;;-3.61;90.58;97566.39;1864483;77;21304;-69
2021/01/31 03:49:22;;;;;;;8.78;5.55;;;;;;;-3.63;90.45;97569.56;1836970;77;21151;-69
2021/01/31 03:51:49;;;;;;;7.95;6.28;;;;;;;-3.69;90.24;97568.72;1864826;77;21167;-69
2021/01/31 03:54:17;;;;;;;9.18;6.58;;;;;;;-3.69;90.80;97571.30;1865261;77;21695;-69
2021/01/31 03:56:59;;;;;;;9.90;6.17;;;;;;;-3.64;91.05;97586.83;1860084;77;21590;-69
2021/01/31 03:59:36;;;;;;;10.48;5.87;;;;;;;-3.56;90.87;97583.22;1806205;77;21270;-69
2021/01/31 04:02:04;;;;;;;10.68;6.58;;;;;;;-3.55;90.17;97592.63;1858223;76;21175;-69
2021/01/31 04:04:37;;;;;;;11.00;6.72;;;;;;;-3.51;90.21;97597.11;1841264;77;21697;-69
2021/01/31 04:07:06;;;;;;;8.43;6.10;;;;;;;-3.52;89.11;97613.53;1838742;77;21112;-70
2021/01/31 04:09:37;;;;;;;8.53;5.75;;;;;;;-3.57;89.45;97622.92;1833715;77;21142;-69
2021/01/31 04:12:10;;;;;;;9.10;5.87;;;;;;;-3.59;89.75;97630.41;1846148;77;21132;-69
2021/01/31 04:14:59;;;;;;;9.88;6.17;;;;;;;-3.61;89.83;97621.95;1808068;77;21155;-69
2021/01/31 04:17:26;;;;;;;9.05;6.10;;;;;;;-3.58;90.25;97633.37;1852590;77;22352;-69
2021/01/31 04:19:54;;;;;;;9.60;6.12;;;;;;;-3.56;88.80;97627.14;1820510;78;21166;-69
2021/01/31 04:22:22;;;;;;;12.07;5.90;;;;;;;-3.61;88.87;97631.84;1832895;77;21119;-69
2021/01/31 04:24:50;;;;;;;8.33;5.87;;;;;;;-3.65;88.68;97647.65;1820320;77;21288;-69
2021/01/31 04:27:17;;;;;;;8.75;5.83;;;;;;;-3.69;89.17;97650.09;1850466;77;21142;-69
2021/01/31 04:29:45;;;;;;;8.38;5.80;;;;;;;-3.70;89.27;97650.58;1832491;77;21147;-69
2021/01/31 04:32:13;;;;;;;8.63;5.92;;;;;;;-3.74;89.14;97646.09;1827872;77;21092;-69
2021/01/31 04:34:41;;;;;;;8.65;5.35;;;;;;;-3.78;89.11;97651.56;1836148;77;21625;-69
2021/01/31 04:37:09;;;;;;;8.45;5.78;;;;;;;-3.86;89.21;97669.36;1837320;77;21154;-69
2021/01/31 04:39:37;;;;;;;9.05;5.58;;;;;;;-3.87;90.12;97676.30;1835836;77;21272;-69
2021/01/31 04:42:05;;;;;;;9.03;5.67;;;;;;;-3.85;90.44;97675.72;1839722;77;21151;-69
2021/01/31 04:44:33;;;;;;;9.03;6.20;;;;;;;-3.81;90.60;97682.31;1836550;77;21115;-69
2021/01/31 04:47:11;;;;;;;8.53;5.60;;;;;;;-3.78;90.82;97691.16;1840294;77;21179;-69
2021/01/31 04:49:47;;;;;;;9.13;6.20;;;;;;;-3.72;90.67;97697.17;1836730;77;21147;-69
2021/01/31 04:52:48;;;;;;;8.95;5.67;;;;;;;-3.69;90.69;97702.59;1847145;77;21160;-69
2021/01/31 04:55:40;;;;;;;8.63;6.10;;;;;;;-3.68;90.40;97705.98;1840887;77;21655;-69
2021/01/31 04:58:16;;;;;;;9.73;6.58;;;;;;;-3.74;90.76;97709.83;1862281;77;21143;-69
2021/01/31 05:00:59;;;;;;;10.85;6.78;;;;;;;-3.71;91.24;97723.83;1856525;77;21152;-69
2021/01/31 05:03:27;;;;;;;12.07;6.47;;;;;;;-3.68;90.82;97726.66;1861972;77;21595;-69
2021/01/31 05:06:08;;;;;;;10.15;6.53;;;;;;;-3.62;90.61;97739.17;1841483;77;21138;-69
2021/01/31 05:08:35;;;;;;;10.98;7.15;;;;;;;-3.63;89.46;97736.22;1841590;77;21120;-69
2021/01/31 05:11:24;;;;;;;9.10;6.33;;;;;;;-3.68;89.38;97740.87;1831223;77;21555;-69
2021/01/31 05:13:59;;;;;;;12.13;6.92;;;;;;;-3.74;89.75;97738.23;1844190;77;21622;-69
2021/01/31 05:16:26;;;;;;;8.70;6.72;;;;;;;-3.77;90.08;97749.62;1864264;77;21163;-69
2021/01/31 05:19:01;;;;;;;9.90;6.75;;;;;;;-3.72;90.41;97758.36;1853347;77;21563;-69
2021/01/31 05:21:31;;;;;;;12.15;7.50;;;;;;;-3.72;90.08;97771.28;1846773;77;21182;-69
2021/01/31 05:24:15;;;;;;;10.13;6.67;;;;;;;-3.72;90.19;97782.91;1852367;77;21162;-69
2021/01/31 05:26:51;;;;;;;9.28;6.97;;;;;;;-3.74;90.12;97781.72;1854705;77;21148;-69
2021/01/31 05:29:26;;;;;;;11.63;7.20;;;;;;;-3.75;90.34;97796.84;1858570;77;21576;-69
2021/01/31 05:32:04;;;;;;;11.12;7.72;;;;;;;-3.75;90.74;97800.72;1851532;77;21643;-69
2021/01/31 05:34:49;;;;;;;11.45;7.55;;;;;;;-3.70;90.61;97809.46;1842031;77;21171;-69
2021/01/31 05:37:27;;;;;;;12.85;8.30;;;;;;;-3.69;90.30;97814.16;1845419;77;21285;-69
2021/01/31 05:40:07;;;;;;;12.43;7.72;;;;;;;-3.64;90.21;97817.27;1820165;77;21099;-69
2021/01/31 05:42:42;;;;;;;16.82;8.40;;;;;;;-3.63;89.68;97825.36;1854070;77;21682;-69
2021/01/31 05:45:21;;;;;;;12.73;8.13;;;;;;;-3.65;89.43;97833.20;1846940;77;21143;-69
2021/01/31 05:47:50;;;;;;;15.38;9.53;;;;;;;-3.62;89.68;97845.11;1854940;77;21175;-69
2021/01/31 05:50:40;;;;;;;14.13;8.28;;;;;;;-3.58;89.93;97851.72;1847053;77;21607;-69
2021/01/31 05:53:32;;;;;;;12.78;8.93;;;;;;;-3.58;88.96;97849.95;1853546;77;21305;-69
2021/01/31 05:56:24;;;;;;;13.85;8.45;;;;;;;-3.59;89.20;97856.52;1852900;77;21166;-69
2021/01/31 05:59:07;;;;;;;13.45;8.50;;;;;;;-3.57;89.34;97863.25;1858412;77;21146;-69
2021/01/31 06:01:58;;;;;;;14.35;9.05;;;;;;;-3.53;88.95;97863.40;1823136;77;21138;-69
2021/01/31 06:04:27;;;;;;;14.63;9.23;;;;;;;-3.53;88.70;97866.45;1847666;77;21159;-69
2021/01/31 06:07:06;;;;;;;14.00;9.45;;;;;;;-3.51;88.84;97875.75;1863762;77;21604;-69
2021/01/31 06:09:42;;;;;;;14.43;9.43;;;;;;;-3.46;88.70;97877.19;1852831;77;21148;-69
2021/01/31 06:12:21;;;;;;;14.83;8.93;;;;;;;-3.39;87.96;97884.42;1835209;77;21182;-69
2021/01/31 06:15:01;;;;;;;14.15;8.83;;;;;;;-3.35;87.78;97886.33;1846396;77;21365;-69
2021/01/31 06:17:30;;;;;;;15.58;8.85;;;;;;;-3.30;87.13;97896.38;1760769;77;21312;-69
2021/01/31 06:20:12;;;;;;;13.43;9.18;;;;;;;-3.29;86.90;97897.56;1843676;77;21552;-69
2021/01/31 06:22:47;;;;;;;16.50;10.85;;;;;;;-3.28;86.40;97899.68;1849616;77;21250;-69
2021/01/31 06:25:30;;;;;;;16.10;10.43;;;;;;;-3.32;86.41;97908.11;1841607;77;21644;-69
2021/01/31 06:28:16;;;;;;;17.42;9.35;;;;;;;-3.30;86.29;97924.34;1819397;77;21115;-70
2021/01/31 06:31:27;;;;;;;15.03;9.48;;;;;;;-3.32;86.02;97922.33;1831273;77;21268;-69
2021/01/31 06:33:55;;;;;;;14.28;9.23;;;;;;;-3.32;86.26;97928.31;1860078;77;21147;-69
2021/01/31 06:37:01;;;;;;;15.65;10.05;;;;;;;-3.30;86.38;97924.81;1841983;77;21289;-70
2021/01/31 06:39:43;;;;;;;14.45;9.68;;;;;;;-3.28;86.47;97925.53;1840581;77;21276;-69
2021/01/31 06:42:34;;;;;;;14.03;9.07;;;;;;;-3.19;86.76;97926.20;1863379;77;21136;-69
2021/01/31 06:45:21;;;;;;;13.13;8.55;;;;;;;-3.11;85.96;97927.79;1857274;77;21405;-69
2021/01/31 06:48:00;;;;;;;12.05;7.95;;;;;;;-3.12;85.46;97930.03;1853860;77;21564;-69
2021/01/31 06:51:17;;;;;;;16.27;9.70;;;;;;;-3.15;85.82;97931.05;1831331;77;21563;-68
2021/01/31 06:54:19;;;;;;;14.98;9.98;;;;;;;-3.14;86.16;97928.02;1845412;77;21138;-68
2021/01/31 06:57:17;;;;;;;16.65;10.55;;;;;;;-3.05;86.14;97924.77;1863489;77;21308;-68
2021/01/31 07:00:17;;;;;;;16.75;10.82;;;;;;;-3.01;86.29;97930.13;1864244;77;21575;-70
2021/01/31 07:03:10;;;;;;;17.07;10.40;;;;;;;-3.03;86.13;97944.92;1810772;77;21142;-70
2021/01/31 07:06:24;;;;;;;16.95;10.00;;;;;;;-3.04;86.64;97945.84;1846543;77;21280;-68
2021/01/31 07:09:29;;;;;;;20.37;12.20;;;;;;;-3.02;86.29;97956.09;1831484;77;21150;-68
2021/01/31 07:12:20;;;;;;;20.17;11.33;;;;;;;-3.05;86.54;97962.75;1836265;77;21166;-68
2021/01/31 07:15:15;;;;;;;21.62;11.22;;;;;;;-2.93;87.07;97970.50;1808957;78;23018;-69
2021/01/31 07:17:47;;;;;;;17.23;11.05;;;;;;;-2.90;86.78;97968.64;1737895;80;21192;-70
2021/01/31 07:20:31;;;;;;;18.37;11.43;;;;;;;-2.81;86.33;97977.06;1792602;80;21139;-69
2021/01/31 07:23:31;;;;;;;19.55;11.63;;;;;;;-2.80;85.90;97972.27;1785922;80;21309;-70
2021/01/31 07:26:06;;;;;;;18.87;11.48;;;;;;;-2.82;85.54;97975.42;1784608;80;21286;-69
2021/01/31 07:28:40;;;;;;;17.77;10.85;;;;;;;-2.77;85.96;97983.67;1718753;83;21171;-69
2021/01/31 07:31:17;;;;;;;19.57;11.43;;;;;;;-2.73;85.01;97986.44;1748111;81;21167;-69
2021/01/31 07:34:04;;;;;;;18.82;12.23;;;;;;;-2.69;85.15;97993.05;1742009;81;21145;-69
2021/01/31 07:36:51;;;;;;;20.40;11.95;;;;;;;-2.62;85.27;97999.46;1754536;81;21317;-69
2021/01/31 07:39:39;;;;;;;19.50;11.05;;;;;;;-2.48;84.88;98006.73;1723004;83;21183;-69
2021/01/31 07:42:06;;;;;;;16.48;10.23;;;;;;;-2.35;83.46;98014.81;1720370;82;21261;-69
2021/01/31 07:44:36;;;;;;;16.57;10.60;;;;;;;-2.32;82.12;98024.12;1756803;81;21322;-70
2021/01/31 07:47:06;;;;;;;18.60;10.30;;;;;;;-2.38;82.11;98023.27;1729698;81;21125;-70
2021/01/31 07:50:03;;;;;;;17.82;11.03;;;;;;;-2.39;81.43;98032.80;1728998;83;21267;-69
2021/01/31 07:52:57;;;;;;;20.48;12.40;;;;;;;-2.43;81.35;98042.16;1738049;81;21588;-70
2021/01/31 07:55:40;;;;;;;17.75;10.63;;;;;;;-2.41;82.02;98054.09;1706564;84;21190;-70
2021/01/31 07:58:35;;;;;;;19.90;11.88;;;;;;;-2.38;81.42;98059.52;1650156;84;21190;-69
2021/01/31 08:01:04;;;;;;;18.25;10.90;;;;;;;-2.39;81.02;98062.58;1747932;81;21144;-70
2021/01/31 08:03:36;;;;;;;17.98;10.10;;;;;;;-2.32;81.20;98072.03;1691348;84;21196;-70
2021/01/31 08:06:24;;;;;;;16.93;9.48;;;;;;;-2.25;80.25;98078.44;1693126;84;21572;-70
2021/01/31 08:08:53;;;;;;;16.95;10.08;;;;;;;-2.25;79.08;98075.85;1691590;83;21589;-70
2021/01/31 08:11:30;;;;;;;15.00;9.35;;;;;;;-2.26;79.15;98078.09;1752066;82;21601;-68
2021/01/31 08:13:59;;;;;;;16.42;10.25;;;;;;;-2.17;78.93;98085.23;1749188;81;21135;-69
2021/01/31 08:16:48;;;;;;;17.62;10.45;;;;;;;-2.06;78.47;98078.45;1723401;82;21722;-69
2021/01/31 08:19:23;;;;;;;15.98;9.55;;;;;;;-1.90;77.63;98079.04;1743214;81;21175;-69
2021/01/31 08:22:04;;;;;;;14.85;8.93;;;;;;;-1.77;75.94;98085.48;1746962;81;21148;-69
2021/01/31 08:25:10;;;;;;;15.43;9.05;;;;;;;-1.69;74.13;98084.92;1716244;83;21183;-70
2021/01/31 08:27:48;;;;;;;13.70;7.45;;;;;;;-1.61;73.63;98081.30;1745945;81;21167;-69
2021/01/31 08:30:36;;;;;;;11.73;6.95;;;;;;;-1.46;71.96;98083.26;1741383;81;21168;-69
2021/01/31 08:33:08;;;;;;;13.60;8.15;;;;;;;-1.38;70.42;98096.52;1742522;81;21155;-69
2021/01/31 08:35:50;;;;;;;14.18;8.05;;;;;;;-1.42;70.84;98097.65;1716143;83;21144;-71
2021/01/31 08:38:31;;;;;;;11.97;7.60;;;;;;;-1.49;70.33;98106.84;1707071;84;21195;-70
2021/01/31 08:41:05;;;;;;;11.22;6.70;;;;;;;-1.58;69.46;98109.61;1721210;83;21164;-71
2021/01/31 08:43:47;;;;;;;11.78;7.47;;;;;;;-1.60;69.72;98107.12;1747412;81;21581;-69
2021/01/31 08:46:26;;;;;;;13.28;6.55;;;;;;;-1.45;69.84;98118.64;1743511;81;21296;-69
2021/01/31 08:49:14;;;;;;;11.75;7.80;;;;;;;-1.37;68.46;98122.34;1689641;84;21330;-70
2021/01/31 08:51:44;;;;;;;11.18;6.83;;;;;;;-1.39;68.63;98125.48;1703259;83;21306;-68
2021/01/31 08:54:17;;;;;;;10.95;7.33;;;;;;;-1.51;67.85;98141.13;1724031;83;21144;-70
2021/01/31 08:56:53;;;;;;;;;;;;;;;-1.60;67.75;98135.64;1748235;82;21569;-68
2021/01/31 08:59:41;;;;;;;9.93;6.72;;;;;;;-0.97;66.18;98141.95;1741937;81;20241;-70
2021/01/31 09:02:22;;;;;;;9.38;6.53;;;;;;;-0.51;65.12;98141.10;1743071;81;21340;-69
2021/01/31 09:05:13;;;;;;;12.37;8.08;;;;;;;0.50;62.64;98138.11;1720043;81;21164;-70
2021/01/31 09:07:51;;;;;;;12.28;7.70;;;;;;;1.91;61.12;98138.70;1747453;81;21628;-69
2021/01/31 09:10:40;;;;;;;12.03;8.03;;;;;;;3.77;57.49;98134.41;1743379;81;21306;-68
2021/01/31 09:13:30;;;;;;;10.25;7.28;;;;;;;5.45;54.22;98127.79;1728398;83;21183;-69
2021/01/31 09:16:22;;;;;;;10.78;7.75;;;;;;;6.37;45.66;98132.06;1705489;84;21322;-69
2021/01/31 09:19:22;;;;;;;9.88;7.37;;;;;;;7.11;45.79;98134.85;1739941;81;21158;-69
2021/01/31 09:21:57;;;;;;;9.33;6.87;;;;;;;8.04;42.08;98149.86;1714284;83;21317;-67
2021/01/31 09:24:25;;;;;;;9.28;6.85;;;;;;;8.91;39.29;98157.73;1705651;84;21557;-69
2021/01/31 09:26:55;;;;;;;9.95;7.20;;;;;;;9.68;38.33;98167.37;1712857;83;21139;-69
2021/01/31 09:29:29;;;;;;;10.35;7.58;;;;;;;10.76;37.50;98164.70;1746076;81;21847;-69
2021/01/31 09:32:14;;;;;;;10.63;7.40;;;;;;;11.71;34.29;98175.98;1738667;81;21286;-69
2021/01/31 09:34:42;;;;;;;9.05;6.78;;;;;;;11.99;32.81;98165.93;1698481;84;22144;-69
2021/01/31 09:37:23;;;;;;;10.08;6.90;;;;;;;11.23;32.70;98183.19;1679255;84;21191;-68
2021/01/31 09:39:51;;;;;;;8.95;6.95;;;;;;;10.47;33.89;98177.45;1708349;84;21692;-68
2021/01/31 09:42:19;;;;;;;7.85;6.50;;;;;;;10.01;34.79;98186.86;1678275;84;21212;-68
2021/01/31 09:44:57;;;;;;;8.15;6.22;;;;;;;9.65;34.93;98183.55;1698472;83;21152;-68
2021/01/31 09:47:25;;;;;;;9.18;6.10;;;;;;;8.96;35.50;98184.41;1706830;84;21609;-69
2021/01/31 09:50:00;;;;;;;6.37;5.60;;;;;;;8.58;36.85;98196.62;1715663;83;21143;-69
2021/01/31 09:52:27;;;;;;;8.15;5.87;;;;;;;8.70;36.12;98195.26;1741177;81;21615;-70
2021/01/31 09:54:55;;;;;;;6.97;5.35;;;;;;;9.38;34.79;98194.98;1742426;81;21159;-68
2021/01/31 09:57:26;;;;;;;7.83;5.47;;;;;;;9.88;34.10;98202.81;1693004;84;21645;-68
2021/01/31 10:00:10;;;;;;;6.75;5.50;;;;;;;10.43;33.21;98197.32;1712421;83;21552;-69
2021/01/31 10:02:40;;;;;;;8.38;5.78;;;;;;;11.19;32.47;98197.00;1718170;82;21211;-70
2021/01/31 10:05:11;;;;;;;8.90;6.00;;;;;;;12.27;31.12;98187.58;1744959;81;21133;-69
2021/01/31 10:07:46;;;;;;;7.67;5.45;;;;;;;13.00;29.94;98195.36;1716239;82;21215;-70
2021/01/31 10:10:39;;;;;;;6.20;5.12;;;;;;;13.72;28.01;98201.00;1693422;84;21208;-69
2021/01/31 10:13:28;;;;;;;6.53;4.95;;;;;;;14.02;25.99;98200.58;1746248;81;21306;-69
2021/01/31 10:15:59;;;;;;;7.17;4.85;;;;;;;13.24;26.93;98208.27;1737171;81;21187;-69
2021/01/31 10:18:35;;;;;;;6.15;4.80;;;;;;;12.97;27.74;98214.32;1697257;84;21229;-69
2021/01/31 10:21:14;;;;;;;5.92;4.40;;;;;;;12.98;26.58;98214.64;1716741;83;21779;-71
2021/01/31 10:23:44;;;;;;;7.97;5.10;;;;;;;13.06;27.25;98220.80;1694540;84;21283;-70
2021/01/31 10:26:15;;;;;;;6.60;5.22;;;;;;;13.49;27.24;98219.19;1718564;83;21214;-70
2021/01/31 10:29:00;;;;;;;5.85;4.75;;;;;;;13.78;26.87;98225.93;1748098;82;21323;-70
2021/01/31 10:31:39;;;;;;;5.00;4.30;;;;;;;13.90;26.13;98235.45;1746509;82;21173;-70
2021/01/31 10:37:33;;;;;;;7.20;4.10;;;;;;;13.29;26.32;98240.34;1802378;78;24173;-71
2021/01/31 10:40:03;;;;;;;5.65;4.45;;;;;;;13.22;25.59;98250.93;1772675;80;21159;-70
2021/01/31 10:42:30;;;;;;;7.08;4.75;;;;;;;12.41;26.64;98251.59;1781122;80;21321;-70
2021/01/31 10:45:13;;;;;;;6.45;4.17;;;;;;;12.26;27.23;98256.19;1765081;80;21162;-70
2021/01/31 10:47:45;;;;;;;6.83;4.28;;;;;;;12.06;26.90;98256.84;1749854;80;21367;-70
2021/01/31 10:50:15;;;;;;;8.23;4.45;;;;;;;11.42;27.72;98268.27;1758260;81;21194;-70
2021/01/31 10:52:43;;;;;;;4.75;3.87;;;;;;;10.87;28.56;98266.02;1686511;82;21334;-70
2021/01/31 10:55:11;;;;;;;5.08;4.50;;;;;;;10.03;29.14;98265.41;1692396;84;21192;-70
2021/01/31 10:57:40;;;;;;;6.35;4.50;;;;;;;9.21;30.25;98272.61;1678702;84;21175;-70
2021/01/31 11:00:10;;;;;;;6.15;4.42;;;;;;;8.90;31.41;98278.20;1687921;84;21215;-70
2021/01/31 11:02:37;;;;;;;7.03;4.35;;;;;;;8.61;31.44;98280.11;1724687;83;21208;-70
2021/01/31 11:05:07;;;;;;;7.05;4.37;;;;;;;8.14;32.38;98279.52;1677642;84;21179;-69
2021/01/31 11:07:34;;;;;;;7.87;4.53;;;;;;;8.06;33.22;98288.73;1684785;84;21208;-70
2021/01/31 11:10:04;;;;;;;6.30;4.33;;;;;;;7.82;33.06;98273.30;1651197;85;21164;-70
2021/01/31 11:12:33;;;;;;;7.90;4.45;;;;;;;7.35;33.60;98287.88;1687331;84;21354;-70
2021/01/31 11:15:01;;;;;;;6.85;4.90;;;;;;;6.64;34.66;98287.80;1751162;81;21166;-69
2021/01/31 11:17:28;;;;;;;6.65;5.00;;;;;;;6.19;35.85;98284.89;1740954;81;21305;-70
2021/01/31 11:19:56;;;;;;;6.87;4.80;;;;;;;6.30;36.47;98292.52;1745675;81;21207;-70
2021/01/31 11:22:24;;;;;;;8.13;5.00;;;;;;;6.99;35.93;98303.05;1654644;84;21184;-70
2021/01/31 11:24:51;;;;;;;8.93;5.15;;;;;;;7.26;35.52;98298.55;1719111;83;21334;-71
2021/01/31 11:27:19;;;;;;;6.47;5.05;;;;;;;7.21;35.44;98304.77;1658131;84;21168;-70
2021/01/31 11:29:46;;;;;;;8.13;4.30;;;;;;;7.09;35.52;98305.06;1763258;81;21318;-71
2021/01/31 11:32:14;;;;;;;6.80;4.42;;;;;;;6.98;34.95;98304.05;1753930;81;21305;-71
2021/01/31 11:34:42;;;;;;;6.42;4.53;;;;;;;6.77;35.15;98306.58;1754738;81;21171;-69
2021/01/31 11:37:10;;;;;;;6.90;4.72;;;;;;;6.68;35.85;98303.58;1763733;81;21703;-71
2021/01/31 11:39:38;;;;;;;8.08;5.20;;;;;;;6.64;36.16;98300.94;1750365;81;21174;-70
2021/01/31 11:42:05;;;;;;;5.80;4.08;;;;;;;6.35;36.64;98311.76;1764790;81;21616;-71
2021/01/31 11:44:33;;;;;;;5.20;3.95;;;;;;;5.91;36.54;98306.48;1744440;81;21599;-73
2021/01/31 11:47:01;;;;;;;6.87;3.87;;;;;;;5.41;37.26;98319.16;1757502;81;21337;-70
2021/01/31 11:49:28;;;;;;;8.63;4.45;;;;;;;5.08;38.06;98307.98;1746943;81;21310;-69
2021/01/31 11:51:56;;;;;;;6.85;4.58;;;;;;;4.72;38.72;98315.25;1761895;81;21194;-70
2021/01/31 11:54:24;;;;;;;5.28;4.35;;;;;;;4.44;39.63;98319.63;1762953;81;21553;-70
2021/01/31 11:56:52;;;;;;;7.75;4.97;;;;;;;4.09;39.83;98322.37;1753671;81;21258;-71
2021/01/31 11:59:20;;;;;;;6.78;4.83;;;;;;;3.68;40.86;98327.78;1757827;81;21342;-70
2021/01/31 12:01:49;;;;;;;10.43;5.37;;;;;;;3.46;41.77;98326.70;1744523;81;21743;-70
2021/01/31 12:04:18;;;;;;;9.38;6.85;;;;;;;3.22;42.50;98321.39;1736797;81;21187;-71
2021/01/31 12:06:46;;;;;;;7.65;5.62;;;;;;;3.03;42.95;98319.56;1738777;81;21183;-70
2021/01/31 12:09:14;;;;;;;8.58;5.03;;;;;;;2.95;43.21;98323.30;1747024;81;21306;-71
2021/01/31 12:11:41;;;;;;;8.28;5.35;;;;;;;2.85;43.44;98328.98;1760400;81;21164;-71
2021/01/31 12:14:11;;;;;;;11.28;6.97;;;;;;;2.73;43.71;98329.53;1740377;81;21143;-70
2021/01/31 12:16:40;;;;;;;12.65;9.05;;;;;;;2.55;43.92;98333.73;1749023;81;21210;-68